Time;durP1;ratioP1;P1;durP2;ratioP2;P2;SDS_P1;SDS_P2;PMS_P1;PMS_P2;Temp;Humidity;BMP_temperature;BMP_pressure;BME280_temperature;BME280_humidity;BME280_pressure;Samples;Min_cycle;Max_cycle;Signal;HPM_P1;HPM_P2
2022/11/30 00:00:18;;;;;;;18.25;14.55;;;7.30;99.90;;;;;;5025896;28;20022;-77
2022/11/30 00:02:43;;;;;;;17.77;14.27;;;7.30;99.90;;;;;;5016020;28;20042;-77
2022/11/30 00:05:09;;;;;;;19.73;15.65;;;7.30;99.90;;;;;;5024420;28;20236;-77
2022/11/30 00:07:35;;;;;;;22.88;16.20;;;7.30;99.90;;;;;;5032085;28;20029;-77
2022/11/30 00:10:01;;;;;;;20.88;15.75;;;7.30;99.90;;;;;;5033224;28;20030;-75
2022/11/30 00:12:27;;;;;;;23.52;16.42;;;7.30;99.90;;;;;;5025790;28;20029;-77
2022/11/30 00:14:53;;;;;;;19.27;14.77;;;7.30;99.90;;;;;;5031890;28;20359;-78
2022/11/30 00:17:19;;;;;;;18.60;14.20;;;7.30;99.90;;;;;;5032961;28;20028;-76
2022/11/30 00:19:44;;;;;;;18.80;15.23;;;7.30;99.90;;;;;;5033540;28;20029;-78
2022/11/30 00:22:10;;;;;;;21.00;17.00;;;7.30;99.90;;;;;;5032462;28;20013;-75
2022/11/30 00:24:35;;;;;;;20.27;16.27;;;7.30;99.90;;;;;;5032685;28;20025;-77
2022/11/30 00:27:01;;;;;;;21.08;16.20;;;7.30;99.90;;;;;;5032329;28;20103;-76
2022/11/30 00:29:27;;;;;;;19.77;15.88;;;7.30;99.90;;;;;;5032389;28;20113;-76
2022/11/30 00:31:52;;;;;;;23.75;15.82;;;7.30;99.90;;;;;;5032638;28;20041;-75
2022/11/30 00:34:18;;;;;;;17.42;15.02;;;7.20;99.90;;;;;;5033258;28;20068;-76
2022/11/30 00:36:43;;;;;;;20.67;16.35;;;7.30;99.90;;;;;;5034937;28;20536;-75
2022/11/30 00:39:09;;;;;;;21.92;17.10;;;7.30;99.90;;;;;;5036171;28;20587;-77
2022/11/30 00:41:34;;;;;;;18.23;15.32;;;7.30;99.90;;;;;;5036043;28;20032;-77
2022/11/30 00:44:00;;;;;;;21.52;15.52;;;7.30;99.90;;;;;;5036701;28;20030;-77
2022/11/30 00:46:25;;;;;;;19.88;16.30;;;7.20;99.90;;;;;;5036502;28;20381;-78
2022/11/30 00:48:51;;;;;;;19.95;15.80;;;7.30;99.90;;;;;;5036326;28;20018;-76
2022/11/30 00:51:17;;;;;;;20.08;15.82;;;7.30;99.90;;;;;;5036748;28;20879;-77
2022/11/30 00:53:43;;;;;;;19.95;15.68;;;7.30;99.90;;;;;;5036800;28;20021;-75
2022/11/30 00:56:09;;;;;;;18.25;15.00;;;7.30;99.90;;;;;;5036101;28;20884;-77
2022/11/30 00:58:35;;;;;;;19.38;15.18;;;7.30;99.90;;;;;;5036669;28;20022;-75
2022/11/30 01:01:01;;;;;;;20.50;15.73;;;7.30;99.90;;;;;;5036588;28;20542;-76
2022/11/30 01:03:27;;;;;;;21.52;16.52;;;7.30;99.90;;;;;;5035248;28;20113;-77
2022/11/30 01:05:52;;;;;;;19.98;15.80;;;7.30;99.90;;;;;;5036715;28;20029;-77
2022/11/30 01:08:18;;;;;;;18.88;15.48;;;7.30;99.90;;;;;;5036355;28;20084;-77
2022/11/30 01:10:43;;;;;;;18.88;15.65;;;7.30;99.90;;;;;;5036051;28;20091;-77
2022/11/30 01:13:12;;;;;;;22.27;15.45;;;7.30;99.90;;;;;;5036260;28;20056;-77
2022/11/30 01:15:39;;;;;;;19.13;14.73;;;7.30;99.90;;;;;;5036379;28;20025;-77
2022/11/30 01:18:06;;;;;;;19.45;15.52;;;7.30;99.90;;;;;;5035621;28;20117;-77
2022/11/30 01:20:32;;;;;;;20.33;14.57;;;7.20;99.90;;;;;;5035574;28;20029;-77
2022/11/30 01:22:57;;;;;;;17.95;15.43;;;7.30;99.90;;;;;;5035828;28;20029;-76
2022/11/30 01:25:23;;;;;;;18.05;14.60;;;7.30;99.90;;;;;;5035324;28;20040;-77
2022/11/30 01:27:49;;;;;;;20.73;14.82;;;7.30;99.90;;;;;;5035265;28;20057;-78
2022/11/30 01:30:16;;;;;;;18.92;14.55;;;7.30;99.90;;;;;;5035627;28;20032;-78
2022/11/30 01:32:41;;;;;;;18.05;14.23;;;7.30;99.90;;;;;;5034962;28;20026;-77
2022/11/30 01:35:07;;;;;;;16.55;14.13;;;7.30;99.90;;;;;;5035380;28;20108;-76
2022/11/30 01:37:33;;;;;;;24.83;16.95;;;7.30;99.90;;;;;;5035043;28;20381;-77
2022/11/30 01:39:59;;;;;;;23.65;16.35;;;7.30;99.90;;;;;;5034400;28;20025;-77
2022/11/30 01:42:25;;;;;;;21.45;15.93;;;7.20;99.90;;;;;;5036531;28;20053;-78
2022/11/30 01:44:59;;;;;;;20.45;15.48;;;7.20;99.90;;;;;;5034892;28;20036;-77
2022/11/30 01:47:30;;;;;;;21.15;15.63;;;7.20;99.90;;;;;;5035267;28;20033;-78
2022/11/30 01:50:13;;;;;;;20.90;16.10;;;7.20;99.90;;;;;;5034824;28;20025;-76
2022/11/30 01:52:43;;;;;;;22.08;15.05;;;7.20;99.90;;;;;;5034691;28;20093;-77
2022/11/30 01:55:21;;;;;;;22.47;15.63;;;7.20;99.90;;;;;;5035383;28;20025;-77
2022/11/30 01:57:54;;;;;;;17.67;14.07;;;7.10;99.90;;;;;;5035705;28;20025;-77
2022/11/30 02:00:20;;;;;;;16.98;14.57;;;7.00;99.90;;;;;;5034450;28;20064;-77
2022/11/30 02:03:25;;;;;;;16.05;13.63;;;7.00;99.90;;;;;;5035078;28;20057;-75
2022/11/30 02:05:51;;;;;;;18.52;14.02;;;6.90;99.90;;;;;;5024383;28;20033;-77
2022/11/30 02:08:18;;;;;;;16.83;13.85;;;6.90;99.90;;;;;;5034993;28;20024;-76
2022/11/30 02:10:49;;;;;;;20.67;14.73;;;6.80;99.90;;;;;;5034620;28;20048;-77
2022/11/30 02:13:33;;;;;;;22.13;14.80;;;6.70;99.90;;;;;;5032716;28;20188;-75
2022/11/30 02:16:20;;;;;;;21.20;15.15;;;6.70;99.90;;;;;;5024722;28;20053;-77
2022/11/30 02:19:22;;;;;;;19.30;15.25;;;6.70;99.90;;;;;;5034703;28;20025;-78
2022/11/30 02:22:03;;;;;;;19.10;14.57;;;6.60;99.90;;;;;;5033699;28;20033;-76
2022/11/30 02:24:59;;;;;;;23.25;14.93;;;6.60;99.90;;;;;;5034646;28;20025;-76
2022/11/30 02:28:07;;;;;;;18.13;13.20;;;6.60;99.90;;;;;;5020571;28;20441;-77
2022/11/30 02:30:35;;;;;;;17.73;13.82;;;6.60;99.90;;;;;;5034859;28;20025;-78
2022/11/30 02:33:14;;;;;;;21.88;15.70;;;6.60;99.90;;;;;;5034366;28;20116;-76
2022/11/30 02:35:44;;;;;;;23.50;16.40;;;6.60;99.90;;;;;;5034133;28;20036;-76
2022/11/30 02:38:11;;;;;;;21.65;14.20;;;6.60;99.90;;;;;;5034408;28;20068;-77
2022/11/30 02:40:37;;;;;;;21.25;14.48;;;6.60;99.90;;;;;;5035020;28;20061;-77
2022/11/30 02:43:05;;;;;;;17.25;14.38;;;6.60;99.90;;;;;;5034180;28;20469;-76
2022/11/30 02:45:45;;;;;;;22.75;14.73;;;6.60;99.90;;;;;;5034522;28;20022;-75
2022/11/30 02:48:16;;;;;;;23.17;15.73;;;6.60;99.90;;;;;;5033711;28;20017;-76
2022/11/30 02:50:49;;;;;;;24.45;15.68;;;6.50;99.90;;;;;;5034420;28;20041;-77
2022/11/30 02:53:15;;;;;;;24.58;14.48;;;6.60;99.90;;;;;;5033707;28;20477;-76
2022/11/30 02:55:40;;;;;;;17.00;13.75;;;6.50;99.90;;;;;;5033607;28;20105;-76
2022/11/30 02:58:06;;;;;;;19.75;14.63;;;6.50;99.90;;;;;;5032729;28;20053;-78
2022/11/30 03:00:32;;;;;;;18.20;14.10;;;6.40;99.90;;;;;;5034340;28;20029;-76
2022/11/30 03:02:59;;;;;;;16.30;12.82;;;6.30;99.90;;;;;;5026122;28;20024;-77
2022/11/30 03:05:24;;;;;;;19.63;13.93;;;6.30;99.90;;;;;;5034892;28;20013;-77
2022/11/30 03:07:50;;;;;;;20.98;14.98;;;6.20;99.90;;;;;;5033815;28;20034;-76
2022/11/30 03:10:16;;;;;;;17.33;13.75;;;6.20;99.90;;;;;;5032676;28;20079;-76
2022/11/30 03:12:41;;;;;;;17.75;14.30;;;6.10;99.90;;;;;;5033872;28;20013;-77
2022/11/30 03:15:07;;;;;;;18.52;14.55;;;6.10;99.90;;;;;;5033557;28;20017;-76
2022/11/30 03:17:33;;;;;;;19.95;13.52;;;6.10;99.90;;;;;;5032733;28;20077;-77
2022/11/30 03:19:58;;;;;;;16.10;13.90;;;6.00;99.90;;;;;;5033861;28;20084;-76
2022/11/30 03:22:24;;;;;;;16.73;13.63;;;6.00;99.90;;;;;;5033755;28;20120;-76
2022/11/30 03:24:50;;;;;;;18.08;13.38;;;6.00;99.90;;;;;;5033231;28;20021;-76
2022/11/30 03:27:15;;;;;;;17.58;13.32;;;5.90;99.90;;;;;;5033808;28;20081;-76
2022/11/30 03:29:41;;;;;;;17.75;14.93;;;5.80;99.90;;;;;;5033806;28;20496;-76
2022/11/30 03:32:06;;;;;;;16.65;13.90;;;5.80;99.90;;;;;;5033078;28;20033;-76
2022/11/30 03:34:32;;;;;;;19.77;14.30;;;5.80;99.90;;;;;;5033335;28;20026;-77
2022/11/30 03:36:58;;;;;;;16.63;13.27;;;5.80;99.90;;;;;;5033426;28;20025;-76
2022/11/30 03:39:24;;;;;;;18.60;13.88;;;5.90;99.90;;;;;;5032924;28;20051;-77
2022/11/30 03:41:50;;;;;;;16.00;12.98;;;5.90;99.90;;;;;;5033329;28;20083;-76
2022/11/30 03:44:15;;;;;;;15.15;12.85;;;5.90;99.90;;;;;;5034321;28;20056;-76
2022/11/30 03:46:41;;;;;;;20.48;12.57;;;5.90;99.90;;;;;;5034310;28;20032;-75
2022/11/30 03:49:07;;;;;;;15.00;12.40;;;5.90;99.90;;;;;;5033950;28;20096;-77
2022/11/30 03:51:33;;;;;;;17.88;12.40;;;5.90;99.90;;;;;;5033705;28;20052;-75
2022/11/30 03:53:58;;;;;;;18.55;13.38;;;6.00;99.90;;;;;;5034559;28;20354;-76
2022/11/30 03:56:24;;;;;;;17.83;13.75;;;5.90;99.90;;;;;;5034544;28;20052;-78
2022/11/30 03:58:50;;;;;;;20.15;12.88;;;5.90;99.90;;;;;;5032449;28;20013;-77
2022/11/30 04:01:22;;;;;;;18.02;13.32;;;6.00;99.90;;;;;;5033729;28;20029;-76
2022/11/30 04:03:49;;;;;;;15.45;11.70;;;5.90;99.90;;;;;;5033648;28;20362;-76
2022/11/30 04:06:15;;;;;;;15.50;10.80;;;5.90;99.90;;;;;;5032704;28;20102;-77
2022/11/30 04:08:44;;;;;;;13.10;11.68;;;5.90;99.90;;;;;;5033108;28;20061;-77
2022/11/30 04:11:10;;;;;;;14.57;12.30;;;5.90;99.90;;;;;;5036238;28;20040;-77
2022/11/30 04:13:37;;;;;;;17.70;12.75;;;5.90;99.90;;;;;;5035955;28;20116;-76
2022/11/30 04:16:03;;;;;;;16.63;12.32;;;5.90;99.90;;;;;;5036206;28;20025;-76
2022/11/30 04:18:31;;;;;;;17.65;12.93;;;6.00;99.90;;;;;;5036963;28;20022;-77
2022/11/30 04:20:58;;;;;;;15.60;12.15;;;6.00;99.90;;;;;;5035648;28;20025;-77
2022/11/30 04:23:28;;;;;;;16.38;12.23;;;6.60;99.90;;;;;;5036897;28;20021;-77
2022/11/30 04:25:53;;;;;;;14.25;11.32;;;6.00;99.90;;;;;;5036617;28;20025;-77
2022/11/30 04:28:19;;;;;;;16.23;11.70;;;6.00;99.90;;;;;;5035333;28;20195;-77
2022/11/30 04:30:45;;;;;;;12.70;10.52;;;6.00;99.90;;;;;;5036384;28;20116;-78
2022/11/30 04:33:13;;;;;;;12.93;9.32;;;6.00;99.90;;;;;;5036428;28;20036;-76
2022/11/30 04:35:41;;;;;;;13.93;10.27;;;6.00;99.90;;;;;;5035219;28;20098;-76
2022/11/30 04:38:07;;;;;;;11.50;10.25;;;6.10;99.90;;;;;;5036528;28;20033;-76
2022/11/30 04:40:33;;;;;;;12.60;10.82;;;6.10;99.90;;;;;;5036225;28;20031;-76
2022/11/30 04:42:59;;;;;;;20.25;12.98;;;6.10;99.90;;;;;;5035456;28;20458;-77
2022/11/30 04:45:24;;;;;;;21.83;15.20;;;6.20;99.90;;;;;;5036560;28;20079;-76
2022/11/30 04:47:50;;;;;;;24.77;17.23;;;6.20;99.90;;;;;;5035572;28;20021;-76
2022/11/30 04:50:15;;;;;;;29.50;18.45;;;6.30;99.90;;;;;;5036248;28;20021;-77
2022/11/30 04:52:41;;;;;;;14.80;11.90;;;6.40;99.90;;;;;;5036600;28;20030;-76
2022/11/30 04:55:07;;;;;;;15.65;12.77;;;6.50;99.90;;;;;;5035438;28;20014;-77
2022/11/30 04:57:32;;;;;;;16.17;12.00;;;6.50;99.90;;;;;;5035796;28;20037;-76
2022/11/30 04:59:58;;;;;;;15.48;11.80;;;6.40;99.90;;;;;;5035058;28;20071;-76
2022/11/30 05:02:23;;;;;;;14.30;11.68;;;6.40;99.90;;;;;;5035654;28;20049;-76
2022/11/30 05:04:49;;;;;;;13.18;11.20;;;6.50;99.90;;;;;;5035833;28;20034;-77
2022/11/30 05:07:14;;;;;;;14.73;11.68;;;6.50;99.90;;;;;;5035861;28;20355;-77
2022/11/30 05:09:40;;;;;;;14.13;11.60;;;6.50;99.90;;;;;;5035238;28;20111;-74
2022/11/30 05:12:06;;;;;;;24.50;14.52;;;6.50;99.90;;;;;;5017737;28;20034;-76
2022/11/30 05:14:31;;;;;;;19.52;14.15;;;6.50;99.90;;;;;;5035761;28;20041;-77
2022/11/30 05:16:57;;;;;;;21.33;14.63;;;6.50;99.90;;;;;;5034774;28;20030;-76
2022/11/30 05:19:23;;;;;;;16.33;13.05;;;6.50;99.90;;;;;;5036064;28;20025;-76
2022/11/30 05:21:48;;;;;;;16.33;11.48;;;6.50;99.90;;;;;;5035256;28;20037;-77
2022/11/30 05:24:14;;;;;;;15.35;12.88;;;6.60;99.90;;;;;;5034654;28;20016;-76
2022/11/30 05:26:39;;;;;;;15.15;11.27;;;6.60;99.90;;;;;;5035497;28;20509;-77
2022/11/30 05:29:05;;;;;;;11.05;9.85;;;6.50;99.90;;;;;;5035162;28;20053;-75
2022/11/30 05:31:31;;;;;;;12.25;9.68;;;6.50;99.90;;;;;;5034988;28;20474;-76
2022/11/30 05:33:57;;;;;;;12.27;10.00;;;6.50;99.90;;;;;;5035146;28;20057;-76
2022/11/30 05:36:23;;;;;;;15.05;12.23;;;6.50;99.90;;;;;;5035129;28;20048;-76
2022/11/30 05:38:49;;;;;;;13.63;11.60;;;6.50;99.90;;;;;;5035174;28;20064;-76
2022/11/30 05:41:14;;;;;;;14.60;11.32;;;6.50;99.90;;;;;;5035438;28;20480;-76
2022/11/30 05:43:40;;;;;;;12.60;10.57;;;6.60;99.90;;;;;;5035039;28;20117;-76
2022/11/30 05:46:08;;;;;;;17.52;12.50;;;6.50;99.90;;;;;;5034875;28;20053;-77
2022/11/30 05:48:34;;;;;;;16.63;12.50;;;6.50;99.90;;;;;;5036474;28;20061;-75
2022/11/30 05:51:07;;;;;;;19.17;13.35;;;6.60;99.90;;;;;;5033888;28;20029;-76
2022/11/30 05:53:33;;;;;;;18.48;11.63;;;6.60;99.90;;;;;;5035092;28;20025;-74
2022/11/30 05:56:16;;;;;;;19.38;14.43;;;6.60;99.90;;;;;;5035184;28;20470;-77
2022/11/30 05:58:42;;;;;;;17.25;13.38;;;6.10;99.90;;;;;;5030540;28;20465;-77
2022/11/30 06:01:20;;;;;;;16.30;13.27;;;6.60;99.90;;;;;;5032466;28;20462;-76
2022/11/30 06:03:45;;;;;;;19.33;12.90;;;6.60;99.90;;;;;;5028535;28;20055;-78
2022/11/30 06:06:11;;;;;;;15.70;12.38;;;6.60;99.90;;;;;;5018709;28;20131;-76
2022/11/30 06:08:36;;;;;;;19.08;13.93;;;6.60;99.90;;;;;;5017685;28;20385;-77
2022/11/30 06:11:02;;;;;;;20.77;15.15;;;6.60;99.90;;;;;;5015228;28;20037;-76
2022/11/30 06:13:28;;;;;;;19.00;13.35;;;6.60;99.90;;;;;;5019825;28;20435;-76
2022/11/30 06:15:57;;;;;;;17.30;13.90;;;6.60;99.90;;;;;;5016120;28;20536;-76
2022/11/30 06:18:22;;;;;;;22.88;13.98;;;6.70;99.90;;;;;;5026043;28;20508;-74
2022/11/30 06:20:48;;;;;;;18.67;13.18;;;6.70;99.90;;;;;;5028484;28;20153;-76
2022/11/30 06:23:16;;;;;;;21.23;14.35;;;6.70;99.90;;;;;;5031590;28;20053;-76
2022/11/30 06:25:42;;;;;;;16.25;12.73;;;6.70;99.90;;;;;;5030960;28;20035;-77
2022/11/30 06:28:09;;;;;;;15.85;12.38;;;6.60;99.90;;;;;;5030216;28;20041;-76
2022/11/30 06:30:35;;;;;;;15.27;11.63;;;6.60;99.90;;;;;;5030498;28;20095;-76
2022/11/30 06:33:00;;;;;;;14.77;11.50;;;6.60;99.90;;;;;;5044088;28;20022;-76
2022/11/30 06:35:29;;;;;;;16.33;12.02;;;6.70;99.90;;;;;;5029839;28;20543;-77
2022/11/30 06:37:56;;;;;;;15.77;12.57;;;6.70;99.90;;;;;;5030359;28;20485;-78
2022/11/30 06:40:21;;;;;;;13.27;10.43;;;6.70;99.90;;;;;;5029315;28;20532;-77
2022/11/30 06:42:47;;;;;;;10.73;9.55;;;6.60;99.90;;;;;;5030929;28;20021;-76
2022/11/30 06:45:13;;;;;;;15.55;10.57;;;6.60;99.90;;;;;;5030498;28;20052;-76
2022/11/30 06:47:38;;;;;;;12.80;10.38;;;6.60;99.90;;;;;;5029980;28;20057;-77
2022/11/30 06:50:04;;;;;;;11.38;9.93;;;6.60;99.90;;;;;;5029769;28;20051;-77
2022/11/30 06:52:31;;;;;;;14.80;10.25;;;6.60;99.90;;;;;;5029998;28;20092;-76
2022/11/30 06:54:56;;;;;;;14.98;10.23;;;6.50;99.90;;;;;;5014715;28;20014;-76
2022/11/30 06:57:26;;;;;;;17.33;11.32;;;6.50;99.90;;;;;;5013677;28;20025;-77
2022/11/30 06:59:54;;;;;;;15.15;11.20;;;6.50;99.90;;;;;;5015338;28;20025;-75
2022/11/30 07:02:19;;;;;;;14.52;11.68;;;6.20;99.90;;;;;;5018445;28;20030;-77
2022/11/30 07:04:45;;;;;;;16.15;13.15;;;6.50;99.90;;;;;;5013666;28;20374;-76
2022/11/30 07:07:11;;;;;;;18.48;13.45;;;6.60;99.90;;;;;;5016072;28;20009;-77
2022/11/30 07:09:36;;;;;;;15.75;12.35;;;6.60;99.90;;;;;;5018522;28;20050;-77
2022/11/30 07:12:03;;;;;;;17.20;12.32;;;6.60;99.90;;;;;;5017433;28;20064;-77
2022/11/30 07:14:29;;;;;;;18.60;12.68;;;6.50;99.90;;;;;;5016733;28;20028;-76
2022/11/30 07:16:55;;;;;;;15.70;12.27;;;6.50;99.90;;;;;;5015314;28;20028;-76
2022/11/30 07:19:21;;;;;;;20.98;12.98;;;6.50;99.90;;;;;;5013068;28;20048;-78
2022/11/30 07:21:47;;;;;;;18.60;13.43;;;6.50;99.90;;;;;;5021697;28;20022;-76
2022/11/30 07:26:59;;;;;;;18.42;12.23;;;6.50;99.90;;;;;;5030791;28;20115;-76
2022/11/30 07:29:25;;;;;;;20.05;13.52;;;6.50;99.90;;;;;;5032016;28;20029;-77
2022/11/30 07:31:51;;;;;;;14.95;12.95;;;6.40;99.90;;;;;;5023201;28;20045;-75
2022/11/30 07:34:20;;;;;;;17.70;12.63;;;6.50;99.90;;;;;;5020436;28;20020;-77
2022/11/30 07:36:47;;;;;;;16.17;12.63;;;6.50;99.90;;;;;;5022124;28;20037;-76
2022/11/30 07:39:16;;;;;;;18.58;14.00;;;6.40;99.90;;;;;;5032420;28;20025;-77
2022/11/30 07:41:42;;;;;;;18.20;13.73;;;6.50;99.90;;;;;;5032647;28;20389;-78
2022/11/30 07:44:08;;;;;;;18.58;14.40;;;6.50;99.90;;;;;;5028285;28;20017;-78
2022/11/30 07:46:35;;;;;;;23.27;13.90;;;6.50;99.90;;;;;;5033693;28;20026;-79
2022/11/30 07:49:05;;;;;;;23.27;13.07;;;6.60;99.90;;;;;;5033556;28;20106;-80
2022/11/30 07:51:32;;;;;;;18.92;13.82;;;6.60;99.90;;;;;;5032546;28;20044;-79
2022/11/30 07:54:01;;;;;;;17.15;13.27;;;6.60;99.90;;;;;;5034218;28;20026;-78
2022/11/30 07:56:27;;;;;;;16.42;12.77;;;6.60;99.90;;;;;;5034402;28;20032;-77
2022/11/30 07:58:56;;;;;;;19.17;12.98;;;6.60;99.90;;;;;;5036922;28;20029;-83
2022/11/30 08:01:26;;;;;;;16.08;11.82;;;6.70;99.90;;;;;;5043496;28;20091;-81
2022/11/30 08:03:52;;;;;;;21.60;13.52;;;6.70;99.90;;;;;;5046849;28;20021;-83
2022/11/30 08:06:29;;;;;;;21.42;13.48;;;6.70;99.90;;;;;;5032215;28;20119;-82
2022/11/30 08:08:58;;;;;;;25.65;15.00;;;6.70;99.90;;;;;;5033164;28;20080;-82
2022/11/30 08:11:29;;;;;;;22.30;14.77;;;6.80;99.90;;;;;;5045327;28;20067;-81
2022/11/30 08:13:55;;;;;;;26.70;16.73;;;6.80;99.90;;;;;;5048867;28;20149;-80
2022/11/30 08:16:23;;;;;;;27.23;16.23;;;6.80;99.90;;;;;;5045469;28;20104;-81
2022/11/30 08:18:50;;;;;;;30.45;17.73;;;6.80;99.90;;;;;;5034281;28;20105;-78
2022/11/30 08:21:17;;;;;;;29.55;17.70;;;6.90;99.90;;;;;;5033137;28;20014;-74
2022/11/30 08:23:45;;;;;;;27.70;16.17;;;6.90;99.90;;;;;;5033330;28;20105;-77
2022/11/30 08:26:14;;;;;;;22.35;14.85;;;6.90;99.90;;;;;;5032798;28;20022;-78
2022/11/30 08:28:41;;;;;;;22.80;16.42;;;7.00;99.90;;;;;;5021803;28;20037;-76
2022/11/30 08:31:13;;;;;;;22.52;16.17;;;7.00;99.90;;;;;;5031847;28;20159;-78
2022/11/30 08:33:39;;;;;;;21.30;15.52;;;7.00;99.90;;;;;;5033364;28;20418;-79
2022/11/30 08:36:06;;;;;;;23.17;16.08;;;7.10;99.90;;;;;;5034163;28;20478;-80
2022/11/30 08:38:32;;;;;;;20.85;15.48;;;7.10;99.90;;;;;;5036617;28;20163;-79
2022/11/30 08:40:58;;;;;;;16.42;14.73;;;7.10;99.90;;;;;;5034072;28;20484;-80
2022/11/30 08:43:23;;;;;;;20.77;14.13;;;7.10;99.90;;;;;;5034113;28;20053;-81
2022/11/30 08:45:49;;;;;;;19.20;14.25;;;7.10;99.90;;;;;;5034508;28;20025;-80
2022/11/30 08:48:14;;;;;;;22.00;13.60;;;7.00;99.90;;;;;;5033468;28;20457;-80
2022/11/30 08:50:44;;;;;;;18.77;13.77;;;7.10;99.90;;;;;;5043078;28;20061;-81
2022/11/30 08:53:12;;;;;;;16.35;12.93;;;7.20;99.90;;;;;;5039139;28;20394;-80
2022/11/30 08:55:41;;;;;;;16.65;13.18;;;7.20;99.90;;;;;;5033573;28;20378;-81
2022/11/30 08:58:07;;;;;;;18.13;12.85;;;7.20;99.90;;;;;;5038529;28;20498;-80
2022/11/30 09:00:32;;;;;;;14.82;12.63;;;7.30;99.90;;;;;;5040349;28;20026;-79
2022/11/30 09:02:58;;;;;;;14.35;12.68;;;7.30;99.90;;;;;;5044906;28;20373;-81
2022/11/30 09:05:23;;;;;;;14.63;12.18;;;7.30;99.90;;;;;;5038553;28;20057;-81
2022/11/30 09:07:52;;;;;;;17.05;12.95;;;7.30;99.90;;;;;;5039106;28;20021;-81
2022/11/30 09:10:19;;;;;;;13.90;12.48;;;7.30;99.90;;;;;;5050886;28;20024;-81
2022/11/30 09:12:44;;;;;;;17.23;12.85;;;7.40;99.90;;;;;;5054188;28;20033;-79
2022/11/30 09:15:10;;;;;;;17.73;13.05;;;7.40;99.90;;;;;;5038074;28;20395;-81
2022/11/30 09:17:35;;;;;;;18.83;14.90;;;7.40;99.90;;;;;;5038595;28;20079;-81
2022/11/30 09:20:01;;;;;;;18.02;13.57;;;8.50;99.90;;;;;;5037258;28;20512;-80
2022/11/30 09:22:27;;;;;;;14.95;12.77;;;7.50;99.90;;;;;;5038411;28;20029;-80
2022/11/30 09:24:54;;;;;;;20.50;14.63;;;7.50;99.90;;;;;;5040522;28;20045;-82
2022/11/30 09:27:20;;;;;;;14.73;12.38;;;7.50;99.90;;;;;;5038401;28;20527;-81
2022/11/30 09:29:45;;;;;;;18.85;14.30;;;7.60;99.90;;;;;;5037040;28;20060;-82
2022/11/30 09:32:11;;;;;;;18.95;15.25;;;7.70;99.90;;;;;;5035464;28;20040;-80
2022/11/30 09:34:36;;;;;;;17.60;13.38;;;7.60;99.90;;;;;;5037365;28;20022;-80
2022/11/30 09:37:02;;;;;;;22.35;14.35;;;7.70;99.90;;;;;;5036149;28;20053;-81
2022/11/30 09:39:28;;;;;;;16.60;14.15;;;7.60;99.90;;;;;;5037180;28;20065;-80
2022/11/30 09:42:15;;;;;;;16.73;13.18;;;7.60;99.90;;;;;;5037429;28;20025;-80
2022/11/30 09:45:00;;;;;;;20.02;14.18;;;7.70;99.90;;;;;;5035290;28;20101;-80
2022/11/30 09:47:41;;;;;;;19.48;13.98;;;7.80;99.90;;;;;;5031903;28;20033;-80
2022/11/30 09:50:10;;;;;;;;;;;7.80;99.90;;;;;;5035157;28;20373;-77
2022/11/30 09:52:40;;;;;;;17.63;14.50;;;7.80;99.90;;;;;;5036651;28;19912;-79
2022/11/30 09:55:13;;;;;;;19.80;14.75;;;7.80;99.90;;;;;;5027627;28;20017;-78
2022/11/30 09:57:51;;;;;;;19.92;14.52;;;7.90;99.90;;;;;;5035912;28;20029;-79
2022/11/30 10:00:20;;;;;;;22.42;15.05;;;8.00;99.90;;;;;;5037321;28;20021;-78
2022/11/30 10:02:52;;;;;;;22.92;15.23;;;8.00;99.90;;;;;;5036509;28;20057;-80
2022/11/30 10:05:51;;;;;;;21.08;15.00;;;8.10;99.90;;;;;;5036804;28;20029;-79
2022/11/30 10:08:55;;;;;;;22.67;15.23;;;8.20;99.90;;;;;;5033494;28;20033;-80
2022/11/30 10:11:56;;;;;;;23.08;15.55;;;8.30;99.90;;;;;;5025572;28;20314;-80
2022/11/30 10:14:41;;;;;;;26.77;17.48;;;8.30;99.90;;;;;;5036035;28;20022;-80
2022/11/30 10:17:30;;;;;;;22.67;16.67;;;8.40;99.90;;;;;;5036467;28;20022;-79
2022/11/30 10:20:13;;;;;;;26.85;16.30;;;8.50;99.90;;;;;;5038915;28;20029;-81
2022/11/30 10:23:32;;;;;;;25.60;16.70;;;8.40;99.90;;;;;;5037444;28;20033;-80
2022/11/30 10:26:10;;;;;;;23.67;16.33;;;8.50;99.90;;;;;;5033977;28;20525;-80
2022/11/30 10:28:39;;;;;;;26.10;17.15;;;8.50;99.90;;;;;;5036806;28;20501;-79
2022/11/30 10:31:18;;;;;;;31.38;19.35;;;8.60;99.90;;;;;;5029753;28;20404;-78
2022/11/30 10:33:50;;;;;;;27.77;19.10;;;8.60;99.90;;;;;;5033235;28;20041;-82
2022/11/30 10:36:30;;;;;;;30.83;19.02;;;8.50;99.90;;;;;;5031877;28;20022;-80
2022/11/30 10:39:03;;;;;;;33.95;19.52;;;8.60;99.90;;;;;;5023901;28;20104;-79
2022/11/30 10:41:34;;;;;;;33.33;20.13;;;8.60;99.90;;;;;;5029449;28;20036;-78
2022/11/30 10:44:10;;;;;;;35.28;21.17;;;8.60;99.90;;;;;;5028329;28;20073;-79
2022/11/30 10:46:39;;;;;;;37.08;20.50;;;8.60;99.90;;;;;;5028592;28;20746;-80
2022/11/30 10:49:17;;;;;;;30.85;20.30;;;8.70;99.90;;;;;;5029998;28;20049;-79
2022/11/30 10:51:49;;;;;;;35.85;21.23;;;8.60;99.90;;;;;;5029643;28;20472;-79
2022/11/30 10:54:18;;;;;;;29.95;20.27;;;8.70;99.90;;;;;;5030733;28;20029;-79
2022/11/30 10:56:44;;;;;;;33.85;19.73;;;7.90;99.90;;;;;;5032817;28;20044;-79
2022/11/30 10:59:20;;;;;;;30.70;19.90;;;8.60;99.90;;;;;;5032402;28;20389;-79
2022/11/30 11:01:46;;;;;;;30.75;19.98;;;8.70;99.90;;;;;;5030700;28;20041;-79
2022/11/30 11:04:11;;;;;;;28.70;19.92;;;8.70;99.90;;;;;;5032490;28;20030;-81
2022/11/30 11:06:56;;;;;;;31.23;19.92;;;8.80;99.90;;;;;;5031450;28;20093;-80
2022/11/30 11:09:31;;;;;;;27.70;18.95;;;8.90;99.90;;;;;;5034131;28;20127;-79
2022/11/30 11:12:19;;;;;;;27.05;19.33;;;8.80;99.90;;;;;;5028852;28;20508;-78
2022/11/30 11:14:45;;;;;;;34.33;20.75;;;8.80;99.90;;;;;;5030998;28;20376;-76
2022/11/30 11:17:17;;;;;;;30.35;19.48;;;8.80;99.90;;;;;;5031026;28;20018;-80
2022/11/30 11:19:45;;;;;;;33.78;21.42;;;8.80;99.90;;;;;;5029672;28;20063;-81
2022/11/30 11:22:26;;;;;;;28.30;20.05;;;8.90;99.90;;;;;;5025490;28;20115;-81
2022/11/30 11:25:18;;;;;;;29.15;19.25;;;9.10;99.90;;;;;;5033466;28;20022;-81
2022/11/30 11:27:54;;;;;;;30.02;19.30;;;9.20;99.90;;;;;;5034553;28;20045;-81
2022/11/30 11:30:25;;;;;;;31.83;18.65;;;9.20;99.90;;;;;;5031049;28;20032;-78
2022/11/30 11:33:02;;;;;;;32.15;19.30;;;9.30;99.90;;;;;;5035324;28;20032;-80
2022/11/30 11:35:34;;;;;;;29.70;19.52;;;9.30;99.90;;;;;;5026306;28;20030;-81
2022/11/30 11:37:59;;;;;;;32.35;19.65;;;9.30;99.90;;;;;;5033725;28;20053;-80
2022/11/30 11:40:25;;;;;;;26.40;18.83;;;9.30;99.90;;;;;;5033267;28;20045;-80
2022/11/30 11:42:52;;;;;;;24.67;17.05;;;9.30;99.90;;;;;;5033128;28;20029;-81
2022/11/30 11:45:22;;;;;;;26.00;18.08;;;9.40;99.90;;;;;;5034171;28;20025;-81
2022/11/30 11:48:25;;;;;;;24.23;17.50;;;9.40;99.90;;;;;;5040233;28;20035;-82
2022/11/30 11:50:59;;;;;;;27.70;19.33;;;9.30;99.90;;;;;;5026388;28;20375;-81
2022/11/30 11:53:49;;;;;;;24.40;17.52;;;9.30;99.90;;;;;;5034795;28;20041;-81
2022/11/30 11:56:35;;;;;;;25.98;17.40;;;9.30;99.90;;;;;;5025720;28;20033;-82
2022/11/30 11:59:09;;;;;;;25.08;17.35;;;9.30;99.90;;;;;;5021403;28;20033;-81
2022/11/30 12:02:12;;;;;;;25.55;18.02;;;9.20;99.90;;;;;;5034391;28;20021;-81
2022/11/30 12:04:49;;;;;;;24.90;16.98;;;9.20;99.90;;;;;;5030698;28;20048;-81
2022/11/30 12:07:39;;;;;;;26.23;18.23;;;9.20;99.90;;;;;;5031488;28;20022;-81
2022/11/30 12:10:31;;;;;;;23.42;17.40;;;9.30;99.90;;;;;;5033112;28;20024;-82
2022/11/30 12:12:58;;;;;;;29.48;19.23;;;9.30;99.90;;;;;;5021283;28;20402;-82
2022/11/30 12:15:47;;;;;;;24.98;17.25;;;9.30;99.90;;;;;;5034913;28;20029;-82
2022/11/30 12:18:23;;;;;;;28.20;19.05;;;9.40;99.90;;;;;;5014790;28;20045;-82
2022/11/30 12:21:11;;;;;;;25.63;19.27;;;9.30;99.90;;;;;;5034409;28;20058;-82
2022/11/30 12:24:20;;;;;;;28.77;20.40;;;9.20;99.90;;;;;;5035218;28;20097;-82
2022/11/30 12:27:00;;;;;;;30.92;19.63;;;9.10;99.90;;;;;;5015293;28;20046;-82
2022/11/30 12:30:01;;;;;;;27.77;20.63;;;9.00;99.90;;;;;;5047394;28;20017;-82
2022/11/30 12:32:36;;;;;;;;;;;8.90;99.90;;;;;;5058518;28;20064;-83
2022/11/30 12:35:35;;;;;;;27.63;21.30;;;8.90;99.90;;;;;;5041224;28;19905;-83
2022/11/30 12:38:19;;;;;;;31.17;22.58;;;8.90;99.90;;;;;;5040821;28;20116;-81
2022/11/30 12:41:01;;;;;;;33.42;23.15;;;9.00;99.90;;;;;;5045675;28;20025;-82
2022/11/30 12:43:45;;;;;;;28.95;21.30;;;9.10;99.90;;;;;;5028123;28;20033;-82
2022/11/30 12:46:19;;;;;;;32.80;22.95;;;9.10;99.90;;;;;;5023265;28;20113;-82
2022/11/30 12:49:13;;;;;;;30.92;22.95;;;9.20;99.90;;;;;;5038374;28;20033;-81
2022/11/30 12:52:15;;;;;;;34.83;22.75;;;9.30;99.90;;;;;;5037694;28;20397;-82
2022/11/30 12:54:55;;;;;;;30.00;20.92;;;9.30;99.90;;;;;;5037261;28;20025;-82
2022/11/30 12:57:28;;;;;;;30.60;18.98;;;9.40;99.90;;;;;;5036895;28;20492;-82